createdAt,value
2022-09-15T00:01:37.368Z,98715.81
2022-09-15T00:04:06.140Z,98714.34
2022-09-15T00:06:37.558Z,98722.38
2022-09-15T00:09:06.464Z,98720.41
2022-09-15T00:11:38.238Z,98721.91
2022-09-15T00:14:09.068Z,98712.31
2022-09-15T00:16:38.469Z,98707.59
2022-09-15T00:19:07.697Z,98712.78
2022-09-15T00:21:41.199Z,98716.81
2022-09-15T00:24:11.102Z,98715.13
2022-09-15T00:26:39.790Z,98715.09
2022-09-15T00:29:09.344Z,98714.75
2022-09-15T00:31:38.096Z,98716.28
2022-09-15T00:34:07.519Z,98705.47
2022-09-15T00:36:37.579Z,98711.66
2022-09-15T00:39:06.795Z,98705.97
2022-09-15T00:41:35.846Z,98698.34
2022-09-15T00:44:06.515Z,98706.22
2022-09-15T00:46:37.203Z,98703.25
2022-09-15T00:49:10.655Z,98700.34
2022-09-15T00:51:46.819Z,98710.09
2022-09-15T00:54:26.949Z,98699.63
2022-09-15T00:56:59.146Z,98693.81
2022-09-15T00:59:31.807Z,98704.03
2022-09-15T01:02:06.993Z,98701.31
2022-09-15T01:04:35.753Z,98703.66
2022-09-15T01:07:09.513Z,98697.69
2022-09-15T01:09:43.167Z,98689.66
2022-09-15T01:12:12.056Z,98693.56
2022-09-15T01:14:40.978Z,98692.09
2022-09-15T01:17:21.557Z,98689.13
2022-09-15T01:20:24.181Z,98696.75
2022-09-15T01:23:12.660Z,98702.19
2022-09-15T01:26:17.074Z,98696.06
2022-09-15T01:29:16.144Z,98693.31
2022-09-15T01:32:10.886Z,98695.00
2022-09-15T01:34:45.975Z,98695.28
2022-09-15T01:37:22.848Z,98689.09
2022-09-15T01:39:54.326Z,98684.88
2022-09-15T01:42:26.404Z,98696.22
2022-09-15T01:44:59.924Z,98684.50
2022-09-15T01:47:32.021Z,98682.25
2022-09-15T01:50:04.910Z,98688.47
2022-09-15T01:52:35.009Z,98682.13
2022-09-15T01:55:07.269Z,98672.63
2022-09-15T01:57:35.879Z,98672.88
2022-09-15T02:00:05.167Z,98669.56
2022-09-15T02:02:40.600Z,98672.50
2022-09-15T02:05:16.582Z,98671.31
2022-09-15T02:07:52.206Z,98669.94
2022-09-15T02:10:27.760Z,98658.78
2022-09-15T02:13:06.348Z,98656.69
2022-09-15T02:15:42.435Z,98654.97
2022-09-15T02:18:17.103Z,98653.03
2022-09-15T02:20:51.540Z,98651.50
2022-09-15T02:23:27.026Z,98654.84
2022-09-15T02:26:02.925Z,98646.63
2022-09-15T02:28:35.450Z,98641.03
2022-09-15T02:31:07.344Z,98644.41
2022-09-15T02:33:44.221Z,98639.72
2022-09-15T02:36:15.785Z,98633.22
2022-09-15T02:38:50.764Z,98637.28
2022-09-15T02:41:19.894Z,98638.94
2022-09-15T02:43:49.856Z,98640.81
2022-09-15T02:46:21.339Z,98635.13
2022-09-15T02:48:51.726Z,98629.31
2022-09-15T02:51:20.297Z,98630.09
2022-09-15T02:53:48.889Z,98622.34
2022-09-15T02:56:18.245Z,98624.09
2022-09-15T02:58:46.904Z,98622.41
2022-09-15T03:01:17.173Z,98615.47
2022-09-15T03:03:47.376Z,98614.50
2022-09-15T03:06:21.416Z,98616.47
2022-09-15T03:08:52.021Z,98610.91
2022-09-15T03:11:22.719Z,98608.50
2022-09-15T03:13:55.384Z,98599.53
2022-09-15T03:16:24.796Z,98608.25
2022-09-15T03:18:55.522Z,98595.44
2022-09-15T03:21:25.277Z,98604.69
2022-09-15T03:23:53.625Z,98581.16
2022-09-15T03:26:22.378Z,98586.56
2022-09-15T03:28:51.215Z,98586.06
2022-09-15T03:31:20.138Z,98589.56
2022-09-15T03:33:48.964Z,98589.16
2022-09-15T03:36:17.430Z,98580.34
2022-09-15T03:38:47.748Z,98578.63
2022-09-15T03:41:16.316Z,98580.88
2022-09-15T03:43:44.884Z,98577.56
2022-09-15T03:46:14.153Z,98572.53
2022-09-15T03:48:43.003Z,98576.41
2022-09-15T03:51:12.640Z,98579.47
2022-09-15T03:53:43.101Z,98572.53
2022-09-15T03:56:20.106Z,98574.00
2022-09-15T03:58:48.838Z,98570.84
2022-09-15T04:01:18.747Z,98572.59
2022-09-15T04:03:51.113Z,98563.59
2022-09-15T04:06:21.462Z,98557.75
2022-09-15T04:08:50.628Z,98565.00
2022-09-15T04:11:22.874Z,98558.09
2022-09-15T04:13:51.744Z,98556.06
2022-09-15T04:16:23.370Z,98559.22
2022-09-15T04:18:52.926Z,98556.59
2022-09-15T04:21:24.769Z,98553.00
2022-09-15T04:23:55.310Z,98547.38
2022-09-15T04:26:29.979Z,98550.25
2022-09-15T04:29:03.073Z,98549.63
2022-09-15T04:31:34.173Z,98551.44
2022-09-15T04:34:02.652Z,98546.94
2022-09-15T04:36:31.435Z,98545.41
2022-09-15T04:39:00.723Z,98548.22
2022-09-15T04:41:31.183Z,98549.91
2022-09-15T04:43:59.716Z,98549.06
2022-09-15T04:46:28.940Z,98546.78
2022-09-15T04:48:58.406Z,98542.38
2022-09-15T04:51:27.550Z,98541.75
2022-09-15T04:53:56.231Z,98550.16
2022-09-15T04:56:27.006Z,98545.06
2022-09-15T04:59:03.499Z,98550.66
2022-09-15T05:01:35.382Z,98555.94
2022-09-15T05:04:05.772Z,98556.84
2022-09-15T05:06:36.840Z,98559.53
2022-09-15T05:09:10.432Z,98566.75
2022-09-15T05:11:39.593Z,98563.56
2022-09-15T05:14:09.779Z,98566.94
2022-09-15T05:16:40.139Z,98572.63
2022-09-15T05:19:08.899Z,98576.44
2022-09-15T05:21:37.411Z,98578.28
2022-09-15T05:24:06.645Z,98576.72
2022-09-15T05:26:35.682Z,98590.88
2022-09-15T05:29:04.664Z,98599.69
2022-09-15T05:31:35.471Z,98613.19
2022-09-15T05:34:07.270Z,98618.28
2022-09-15T05:36:36.077Z,98621.56
2022-09-15T05:39:05.409Z,98621.00
2022-09-15T05:41:34.106Z,98629.78
2022-09-15T05:44:03.066Z,98624.97
2022-09-15T05:46:31.771Z,98635.56
2022-09-15T05:49:01.906Z,98634.63
2022-09-15T05:51:30.448Z,98638.03
2022-09-15T05:53:59.546Z,98637.81
2022-09-15T05:56:28.212Z,98639.41
2022-09-15T05:58:57.299Z,98638.97
2022-09-15T06:01:27.558Z,98640.28
2022-09-15T06:03:57.701Z,98634.50
2022-09-15T06:06:28.244Z,98642.09
2022-09-15T06:08:59.680Z,98639.97
2022-09-15T06:11:30.698Z,98639.78
2022-09-15T06:14:01.013Z,98638.53
2022-09-15T06:16:32.960Z,98643.72
2022-09-15T06:19:02.095Z,98640.66
2022-09-15T06:21:33.913Z,98656.22
2022-09-15T06:24:05.987Z,98666.84
2022-09-15T06:26:34.953Z,98677.00
2022-09-15T06:29:05.374Z,98676.97
2022-09-15T06:31:35.660Z,98671.41
2022-09-15T06:34:05.475Z,98683.72
2022-09-15T06:36:37.702Z,98682.50
2022-09-15T06:39:06.488Z,98687.88
2022-09-15T06:41:58.481Z,98679.06
2022-09-15T06:44:24.053Z,98692.63
2022-09-15T06:46:52.461Z,98688.19
2022-09-15T06:49:21.972Z,98684.38
2022-09-15T06:51:51.935Z,98694.88
2022-09-15T06:54:20.490Z,98691.03
2022-09-15T06:56:49.563Z,98687.88
2022-09-15T06:59:18.764Z,98697.19
2022-09-15T07:01:54.171Z,98699.41
2022-09-15T07:04:23.348Z,98703.53
2022-09-15T07:06:53.047Z,98706.19
2022-09-15T07:09:21.410Z,98701.00
2022-09-15T07:11:50.056Z,98695.13
2022-09-15T07:14:18.873Z,98690.09
2022-09-15T07:16:47.411Z,98699.56
2022-09-15T07:19:16.000Z,98704.47
2022-09-15T07:21:44.536Z,98708.53
2022-09-15T07:24:14.616Z,98716.78
2022-09-15T07:26:43.305Z,98718.47
2022-09-15T07:29:12.277Z,98720.78
2022-09-15T07:31:41.162Z,98725.94
2022-09-15T07:34:10.080Z,98726.72
2022-09-15T07:36:38.570Z,98728.94
2022-09-15T07:39:07.430Z,98735.50
2022-09-15T07:41:38.043Z,98730.94
2022-09-15T07:44:08.312Z,98730.81
2022-09-15T07:46:37.075Z,98735.50
2022-09-15T07:49:06.809Z,98736.13
2022-09-15T07:51:35.276Z,98742.38
2022-09-15T07:54:03.935Z,98730.56
2022-09-15T07:56:32.622Z,98737.88
2022-09-15T07:59:02.376Z,98758.69
2022-09-15T08:01:31.368Z,98748.28
2022-09-15T08:03:59.988Z,98750.47
2022-09-15T08:06:28.765Z,98760.53
2022-09-15T08:09:00.621Z,98765.56
2022-09-15T08:11:30.719Z,98773.00
2022-09-15T08:14:03.738Z,98775.25
2022-09-15T08:16:32.492Z,98770.53
2022-09-15T08:19:01.193Z,98781.00
2022-09-15T08:21:30.013Z,98785.63
2022-09-15T08:24:00.158Z,98796.66
2022-09-15T08:26:31.133Z,98787.81
2022-09-15T08:29:00.678Z,98800.81
2022-09-15T08:31:31.255Z,98801.28
2022-09-15T08:34:03.903Z,98805.69
2022-09-15T08:36:32.592Z,98801.59
2022-09-15T08:39:00.969Z,98808.06
2022-09-15T08:41:33.210Z,98809.06
2022-09-15T08:44:05.301Z,98816.06
2022-09-15T08:46:39.247Z,98818.69
2022-09-15T08:49:13.506Z,98821.53
2022-09-15T08:51:47.791Z,98826.03
2022-09-15T08:54:22.284Z,98822.94
2022-09-15T08:56:52.132Z,98840.41
2022-09-15T08:59:21.818Z,98848.53
2022-09-15T09:02:05.883Z,98851.94
2022-09-15T09:04:48.924Z,98844.34
2022-09-15T09:07:37.061Z,98838.50
2022-09-15T09:10:16.514Z,98851.13
2022-09-15T09:13:02.552Z,98856.06
2022-09-15T09:15:44.608Z,98861.00
2022-09-15T09:18:46.878Z,98854.16
2022-09-15T09:21:24.778Z,98862.06
2022-09-15T09:24:02.603Z,98845.63
2022-09-15T09:26:33.777Z,98870.84
2022-09-15T09:29:06.261Z,98855.16
2022-09-15T09:31:37.516Z,98856.16
2022-09-15T09:34:21.635Z,98852.59
2022-09-15T09:36:56.347Z,98851.72
2022-09-15T09:39:25.022Z,98859.00
2022-09-15T09:41:55.532Z,98850.06
2022-09-15T09:44:32.060Z,98831.44
2022-09-15T09:47:01.608Z,98823.97
2022-09-15T09:49:35.424Z,98814.75
2022-09-15T09:52:05.541Z,98800.63
2022-09-15T09:54:35.978Z,98789.03
2022-09-15T09:57:28.176Z,98780.38
2022-09-15T09:59:57.071Z,98763.97
2022-09-15T10:02:27.090Z,98744.75
2022-09-15T10:05:18.490Z,98736.78
2022-09-15T10:08:07.464Z,98735.75
2022-09-15T10:10:35.874Z,98725.22
2022-09-15T10:13:05.104Z,98714.22
2022-09-15T10:15:36.172Z,98704.06
2022-09-15T10:18:05.242Z,98678.97
2022-09-15T10:20:39.758Z,98686.22
2022-09-15T10:23:25.727Z,98678.13
2022-09-15T10:26:00.173Z,98676.38
2022-09-15T10:28:29.583Z,98678.06
2022-09-15T10:31:07.079Z,98676.97
2022-09-15T10:33:37.007Z,98674.09
2022-09-15T10:36:13.116Z,98673.41
2022-09-15T10:38:45.089Z,98655.84
2022-09-15T10:41:23.324Z,98634.38
2022-09-15T10:44:04.612Z,98648.03
2022-09-15T10:46:47.093Z,98649.03
2022-09-15T10:49:33.455Z,98651.44
2022-09-15T10:52:15.082Z,98635.06
2022-09-15T10:55:09.121Z,98637.44
2022-09-15T10:57:57.962Z,98624.53
2022-09-15T11:00:29.643Z,98611.84
2022-09-15T11:03:25.981Z,98619.94
2022-09-15T11:06:07.112Z,98619.41
2022-09-15T11:08:55.105Z,98636.78
2022-09-15T11:11:34.431Z,98643.94
2022-09-15T11:14:19.587Z,98637.97
2022-09-15T11:17:07.801Z,98620.34
2022-09-15T11:19:56.707Z,98623.66
2022-09-15T11:22:29.414Z,98618.66
2022-09-15T11:25:03.346Z,98624.22
2022-09-15T11:27:37.295Z,98619.28
2022-09-15T11:30:08.822Z,98618.19
2022-09-15T11:32:45.005Z,98614.31
2022-09-15T11:35:29.910Z,98609.31
2022-09-15T11:38:02.569Z,98602.22
2022-09-15T11:40:38.790Z,98584.34
2022-09-15T11:43:19.167Z,98579.41
2022-09-15T11:45:53.128Z,98572.94
2022-09-15T11:48:29.418Z,98567.72
2022-09-15T11:51:02.851Z,98588.84
2022-09-15T11:53:39.314Z,98595.78
2022-09-15T11:56:16.922Z,98606.78
2022-09-15T11:59:01.362Z,98598.66
2022-09-15T12:01:34.035Z,98615.88
2022-09-15T12:04:09.442Z,98607.41
2022-09-15T12:06:46.074Z,98609.59
2022-09-15T12:09:17.413Z,98607.69
2022-09-15T12:11:50.944Z,98611.44
2022-09-15T12:14:29.783Z,98613.38
2022-09-15T12:16:59.305Z,98620.28
2022-09-15T12:19:45.689Z,98611.31
2022-09-15T12:22:21.355Z,98612.34
2022-09-15T12:24:57.817Z,98610.91
2022-09-15T12:27:30.731Z,98614.97
2022-09-15T12:30:01.224Z,98601.72
2022-09-15T12:32:30.587Z,98590.03
2022-09-15T12:35:05.959Z,98588.69
2022-09-15T12:37:44.142Z,98589.38
2022-09-15T12:40:36.532Z,98583.78
2022-09-15T12:43:20.935Z,98586.34
2022-09-15T12:45:56.459Z,98577.22
2022-09-15T12:48:29.591Z,98569.94
2022-09-15T12:51:01.212Z,98576.38
2022-09-15T12:56:11.995Z,98560.66
2022-09-15T12:58:46.168Z,98556.78
2022-09-15T13:01:48.647Z,98554.72
2022-09-15T13:04:46.325Z,98562.63
2022-09-15T13:07:55.622Z,98553.09
2022-09-15T13:10:34.859Z,98549.84
2022-09-15T13:13:16.395Z,98559.63
2022-09-15T13:15:49.916Z,98557.28
2022-09-15T13:18:20.803Z,98550.03
2022-09-15T13:20:59.164Z,98550.38
2022-09-15T13:23:34.435Z,98551.41
2022-09-15T13:26:06.871Z,98548.50
2022-09-15T13:28:38.431Z,98543.81
2022-09-15T13:31:25.784Z,98546.47
2022-09-15T13:40:46.131Z,98521.63
2022-09-15T13:43:40.766Z,98517.44
2022-09-15T13:46:34.843Z,98517.28
2022-09-15T13:49:41.235Z,98509.66
2022-09-15T13:52:23.419Z,98509.16
2022-09-15T13:55:19.597Z,98496.34
2022-09-15T14:00:48.238Z,98503.53
2022-09-15T14:03:25.725Z,98507.22
2022-09-15T14:05:55.493Z,98513.47
2022-09-15T14:08:28.215Z,98505.66
2022-09-15T14:11:01.636Z,98502.88
2022-09-15T14:13:31.535Z,98499.25
2022-09-15T14:16:02.314Z,98489.47
2022-09-15T14:18:42.224Z,98484.41
2022-09-15T14:21:18.116Z,98475.31
2022-09-15T14:23:48.186Z,98469.38
2022-09-15T14:26:20.352Z,98463.22
2022-09-15T14:28:54.927Z,98461.16
2022-09-15T14:31:33.417Z,98443.94
2022-09-15T14:34:04.442Z,98448.94
2022-09-15T14:36:34.457Z,98445.19
2022-09-15T14:39:09.106Z,98448.09
2022-09-15T14:41:38.245Z,98444.34
2022-09-15T14:47:14.144Z,98439.66
2022-09-15T14:49:43.859Z,98439.91
2022-09-15T14:52:24.879Z,98443.63
2022-09-15T14:54:59.108Z,98444.63
2022-09-15T14:57:31.496Z,98447.50
2022-09-15T15:00:04.911Z,98435.47
2022-09-15T15:02:46.860Z,98439.41
2022-09-15T15:05:20.496Z,98437.22
2022-09-15T15:07:50.319Z,98430.97
2022-09-15T15:10:22.810Z,98434.19
2022-09-15T15:12:53.721Z,98427.59
2022-09-15T15:15:22.666Z,98436.22
2022-09-15T15:17:54.583Z,98426.59
2022-09-15T15:20:27.142Z,98425.94
2022-09-15T15:23:13.145Z,98410.44
2022-09-15T15:25:42.938Z,98415.81
2022-09-15T15:28:33.151Z,98418.34
2022-09-15T15:31:15.482Z,98411.44
2022-09-15T15:33:48.908Z,98410.41
2022-09-15T15:36:23.825Z,98412.13
2022-09-15T15:38:54.918Z,98401.91
2022-09-15T15:41:26.186Z,98399.78
2022-09-15T15:44:07.981Z,98393.56
2022-09-15T15:46:52.227Z,98399.47
2022-09-15T15:49:22.040Z,98401.59
2022-09-15T15:51:54.921Z,98410.34
2022-09-15T15:54:23.790Z,98410.84
2022-09-15T15:56:53.100Z,98411.72
2022-09-15T15:59:21.776Z,98409.75
2022-09-15T16:01:53.095Z,98404.50
2022-09-15T16:04:22.073Z,98409.91
2022-09-15T16:06:52.911Z,98411.25
2022-09-15T16:09:21.848Z,98405.34
2022-09-15T16:11:50.892Z,98399.16
2022-09-15T16:14:19.390Z,98400.78
2022-09-15T16:16:48.176Z,98396.75
2022-09-15T16:19:17.034Z,98401.81
2022-09-15T16:21:45.794Z,98392.94
2022-09-15T16:24:17.392Z,98396.28
2022-09-15T16:26:47.799Z,98399.94
2022-09-15T16:29:18.172Z,98400.34
2022-09-15T16:31:47.338Z,98390.13
2022-09-15T16:34:21.422Z,98392.97
2022-09-15T16:36:49.977Z,98395.66
2022-09-15T16:39:19.763Z,98392.97
2022-09-15T16:41:48.126Z,98397.78
2022-09-15T16:44:19.839Z,98395.81
2022-09-15T16:46:48.530Z,98399.16
2022-09-15T16:49:17.533Z,98392.94
2022-09-15T16:51:46.218Z,98388.50
2022-09-15T16:54:17.791Z,98390.22
2022-09-15T16:56:48.062Z,98398.00
2022-09-15T16:59:16.606Z,98405.78
2022-09-15T17:01:45.010Z,98398.25
2022-09-15T17:04:19.087Z,98399.19
2022-09-15T17:06:47.527Z,98401.88
2022-09-15T17:09:17.903Z,98400.94
2022-09-15T17:11:47.787Z,98394.09
2022-09-15T17:14:19.413Z,98399.47
2022-09-15T17:16:52.736Z,98394.34
2022-09-15T17:19:21.798Z,98394.78
2022-09-15T17:21:52.736Z,98393.13
2022-09-15T17:24:21.076Z,98393.47
2022-09-15T17:26:50.986Z,98394.72
2022-09-15T17:29:19.345Z,98385.28
2022-09-15T17:31:47.959Z,98393.25
2022-09-15T17:34:16.573Z,98381.81
2022-09-15T17:36:45.516Z,98384.28
2022-09-15T17:39:13.913Z,98385.94
2022-09-15T17:41:44.616Z,98378.34
2022-09-15T17:44:14.372Z,98374.81
2022-09-15T17:46:42.918Z,98381.94
2022-09-15T17:49:11.982Z,98381.19
2022-09-15T17:51:40.268Z,98383.72
2022-09-15T17:54:10.903Z,98382.66
2022-09-15T17:56:39.415Z,98384.06
2022-09-15T17:59:07.763Z,98384.88
2022-09-15T18:01:37.537Z,98388.34
2022-09-15T18:04:06.301Z,98391.56
2022-09-15T18:06:35.767Z,98391.44
2022-09-15T18:09:04.353Z,98389.72
2022-09-15T18:11:33.716Z,98385.19
2022-09-15T18:14:02.076Z,98385.72
2022-09-15T18:16:30.439Z,98391.09
2022-09-15T18:19:00.337Z,98392.81
2022-09-15T18:21:30.849Z,98399.03
2022-09-15T18:23:59.389Z,98396.47
2022-09-15T18:26:27.777Z,98399.84
2022-09-15T18:28:56.900Z,98395.50
2022-09-15T18:31:26.517Z,98407.94
2022-09-15T18:33:55.561Z,98401.72
2022-09-15T18:36:25.858Z,98405.38
2022-09-15T18:38:54.603Z,98398.31
2022-09-15T18:41:23.227Z,98389.88
2022-09-15T18:43:51.735Z,98385.50
2022-09-15T18:46:20.649Z,98387.50
2022-09-15T18:48:49.322Z,98386.97
2022-09-15T18:51:24.094Z,98389.81
2022-09-15T18:53:59.761Z,98391.25
2022-09-15T18:56:28.871Z,98394.09
2022-09-15T18:58:59.219Z,98396.66
2022-09-15T19:01:28.184Z,98391.44
2022-09-15T19:03:56.920Z,98395.25
2022-09-15T19:06:26.041Z,98410.69
2022-09-15T19:08:55.002Z,98459.44
2022-09-15T19:11:24.937Z,98449.94
2022-09-15T19:13:53.913Z,98458.00
2022-09-15T19:16:34.712Z,98462.53
2022-09-15T19:19:11.676Z,98466.53
2022-09-15T19:21:40.258Z,98465.13
2022-09-15T19:24:08.749Z,98469.75
2022-09-15T19:26:38.629Z,98491.66
2022-09-15T19:29:07.206Z,98498.22
2022-09-15T19:31:41.700Z,98501.03
2022-09-15T19:34:11.262Z,98489.41
2022-09-15T19:36:39.696Z,98481.31
2022-09-15T19:39:08.081Z,98490.91
2022-09-15T19:41:38.011Z,98487.34
2022-09-15T19:44:09.445Z,98493.88
2022-09-15T19:46:39.476Z,98490.16
2022-09-15T19:49:07.826Z,98493.13
2022-09-15T19:51:36.262Z,98485.25
2022-09-15T19:54:05.512Z,98488.78
2022-09-15T19:56:34.204Z,98496.75
2022-09-15T19:59:05.788Z,98487.94
2022-09-15T20:01:34.651Z,98494.25
2022-09-15T20:04:03.776Z,98502.75
2022-09-15T20:06:32.930Z,98495.91
2022-09-15T20:09:01.757Z,98492.72
2022-09-15T20:11:30.975Z,98490.16
2022-09-15T20:13:59.740Z,98487.94
2022-09-15T20:16:30.328Z,98501.50
2022-09-15T20:18:58.877Z,98483.47
2022-09-15T20:21:49.267Z,98481.91
2022-09-15T20:24:18.674Z,98489.47
2022-09-15T20:26:47.349Z,98494.72
2022-09-15T20:29:15.669Z,98498.78
2022-09-15T20:31:46.225Z,98491.88
2022-09-15T20:34:14.928Z,98492.38
2022-09-15T20:36:43.631Z,98488.59
2022-09-15T20:39:15.387Z,98492.72
2022-09-15T20:41:45.785Z,98491.03
2022-09-15T20:44:15.066Z,98486.44
2022-09-15T20:46:45.187Z,98490.88
2022-09-15T20:49:13.624Z,98494.66
2022-09-15T20:51:42.321Z,98504.44
2022-09-15T20:54:13.512Z,98487.88
2022-09-15T20:56:41.846Z,98494.09
2022-09-15T20:59:15.198Z,98503.41
2022-09-15T21:01:45.059Z,98503.41
2022-09-15T21:04:13.764Z,98488.66
2022-09-15T21:06:42.082Z,98469.41
2022-09-15T21:09:10.355Z,98465.22
2022-09-15T21:11:39.828Z,98504.78
2022-09-15T21:14:08.161Z,98501.69
2022-09-15T21:16:36.540Z,98512.66
2022-09-15T21:19:07.898Z,98508.75
2022-09-15T21:21:36.906Z,98509.84
2022-09-15T21:24:07.588Z,98520.06
2022-09-15T21:26:58.991Z,98517.16
2022-09-15T21:29:28.763Z,98517.28
2022-09-15T21:31:57.824Z,98506.09
2022-09-15T21:34:28.069Z,98493.47
2022-09-15T21:36:57.949Z,98505.81
2022-09-15T21:39:26.321Z,98508.53
2022-09-15T21:41:54.602Z,98512.09
2022-09-15T21:44:23.040Z,98515.91
2022-09-15T21:46:52.694Z,98526.44
2022-09-15T21:49:21.100Z,98546.09
2022-09-15T21:51:50.985Z,98565.81
2022-09-15T21:54:19.235Z,98572.75
2022-09-15T21:56:47.675Z,98591.38
2022-09-15T21:59:18.137Z,98599.16
2022-09-15T22:01:46.859Z,98608.50
2022-09-15T22:04:15.430Z,98616.16
2022-09-15T22:06:44.847Z,98615.81
2022-09-15T22:09:17.672Z,98606.09
2022-09-15T22:11:46.229Z,98611.19
2022-09-15T22:14:15.374Z,98615.44
2022-09-15T22:16:44.537Z,98626.28
2022-09-15T22:19:13.767Z,98653.19
2022-09-15T22:21:42.585Z,98661.63
2022-09-15T22:24:12.975Z,98688.53
2022-09-15T22:26:43.745Z,98695.94
2022-09-15T22:29:12.991Z,98683.25
2022-09-15T22:31:42.175Z,98674.81
2022-09-15T22:34:11.060Z,98685.69
2022-09-15T22:36:39.979Z,98683.53
2022-09-15T22:39:08.505Z,98680.69
2022-09-15T22:41:40.414Z,98703.09
2022-09-15T22:44:20.047Z,98723.88
2022-09-15T22:46:49.790Z,98733.84
2022-09-15T22:49:18.279Z,98740.13
2022-09-15T22:51:46.950Z,98749.06
2022-09-15T22:54:16.046Z,98770.56
2022-09-15T22:56:44.377Z,98766.00
2022-09-15T22:59:14.051Z,98749.69
2022-09-15T23:01:42.648Z,98755.75
2022-09-15T23:04:10.989Z,98750.00
2022-09-15T23:06:39.364Z,98744.66
2022-09-15T23:09:10.252Z,98729.28
2022-09-15T23:11:40.770Z,98730.78
2022-09-15T23:14:15.508Z,98740.31
2022-09-15T23:16:44.108Z,98740.47
2022-09-15T23:19:13.685Z,98744.19
2022-09-15T23:21:41.960Z,98725.47
2022-09-15T23:24:12.427Z,98726.28
2022-09-15T23:26:41.403Z,98738.38
2022-09-15T23:29:10.140Z,98721.53
2022-09-15T23:31:39.824Z,98712.84
2022-09-15T23:34:08.394Z,98704.94
2022-09-15T23:36:36.758Z,98686.72
2022-09-15T23:39:05.234Z,98679.13
2022-09-15T23:41:33.844Z,98675.44
2022-09-15T23:44:02.177Z,98652.63
2022-09-15T23:46:31.080Z,98635.28
2022-09-15T23:49:01.458Z,98638.63
2022-09-15T23:51:29.902Z,98630.97
2022-09-15T23:53:58.615Z,98623.19
2022-09-15T23:56:27.177Z,98629.44
2022-09-15T23:58:55.671Z,98638.19
